createdAt,value
2018-03-24T00:00:53.367Z,5.10
2018-03-24T00:03:19.737Z,5.10
2018-03-24T00:05:45.925Z,5.10
2018-03-24T00:08:12.237Z,5.10
2018-03-24T00:10:38.411Z,5.10
2018-03-24T00:13:04.684Z,5.10
2018-03-24T00:15:31.339Z,5.10
2018-03-24T00:17:57.601Z,5.20
2018-03-24T00:20:23.802Z,5.20
2018-03-24T00:22:50.733Z,5.20
2018-03-24T00:25:16.975Z,5.20
2018-03-24T00:27:43.255Z,5.20
2018-03-24T00:30:09.730Z,5.20
2018-03-24T00:32:35.995Z,5.20
2018-03-24T00:35:02.221Z,5.20
2018-03-24T00:37:28.504Z,5.30
2018-03-24T00:39:55.465Z,5.30
2018-03-24T00:42:22.474Z,5.20
2018-03-24T00:44:48.710Z,5.30
2018-03-24T00:47:14.955Z,5.30
2018-03-24T00:49:41.237Z,5.20
2018-03-24T00:52:08.212Z,5.30
2018-03-24T00:54:34.489Z,5.20
2018-03-24T00:57:00.966Z,5.20
2018-03-24T00:59:27.277Z,5.20
2018-03-24T01:01:53.468Z,5.30
2018-03-24T01:04:19.744Z,5.20
2018-03-24T01:06:45.957Z,5.20
2018-03-24T01:09:12.967Z,5.30
2018-03-24T01:11:39.216Z,5.30
2018-03-24T01:14:06.498Z,5.30
2018-03-24T01:16:33.692Z,5.30
2018-03-24T01:19:00.962Z,5.30
2018-03-24T01:21:27.189Z,5.30
2018-03-24T01:23:53.505Z,5.30
2018-03-24T01:26:19.747Z,5.20
2018-03-24T01:28:46.104Z,5.30
2018-03-24T01:31:12.532Z,5.20
2018-03-24T01:33:38.775Z,5.20
2018-03-24T01:36:06.040Z,5.10
2018-03-24T01:38:32.332Z,5.10
2018-03-24T01:40:58.827Z,5.10
2018-03-24T01:43:25.057Z,5.00
2018-03-24T01:45:51.281Z,4.90
2018-03-24T01:48:17.698Z,4.90
2018-03-24T01:50:43.966Z,4.80
2018-03-24T01:53:10.153Z,4.80
2018-03-24T01:55:36.353Z,4.70
2018-03-24T01:58:02.603Z,4.70
2018-03-24T02:00:28.768Z,4.60
2018-03-24T02:02:54.978Z,4.60
2018-03-24T02:05:21.221Z,4.50
2018-03-24T02:07:47.642Z,4.40
2018-03-24T02:10:14.016Z,4.30
2018-03-24T02:12:40.260Z,4.30
2018-03-24T02:15:06.556Z,4.20
2018-03-24T02:17:33.592Z,4.10
2018-03-24T02:19:59.868Z,4.10
2018-03-24T02:22:26.113Z,4.00
2018-03-24T02:24:53.316Z,4.00
2018-03-24T02:27:19.679Z,3.90
2018-03-24T02:29:45.980Z,3.90
2018-03-24T02:32:12.256Z,3.80
2018-03-24T02:34:38.607Z,3.80
2018-03-24T02:37:05.113Z,3.80
2018-03-24T02:39:31.518Z,3.70
2018-03-24T02:41:57.780Z,3.60
2018-03-24T02:44:24.762Z,3.50
2018-03-24T02:46:51.026Z,3.50
2018-03-24T02:49:17.312Z,3.50
2018-03-24T02:51:44.270Z,3.40
2018-03-24T02:54:10.545Z,3.40
2018-03-24T02:56:37.045Z,3.40
2018-03-24T02:59:03.529Z,3.30
2018-03-24T03:01:30.004Z,3.30
2018-03-24T03:03:56.274Z,3.20
2018-03-24T03:06:22.632Z,3.20
2018-03-24T03:08:48.912Z,3.20
2018-03-24T03:11:15.221Z,3.10
2018-03-24T03:13:41.550Z,3.10
2018-03-24T03:16:07.881Z,3.10
2018-03-24T03:18:34.253Z,3.00
2018-03-24T03:21:00.557Z,3.00
2018-03-24T03:23:26.780Z,3.00
2018-03-24T03:25:53.046Z,2.90
2018-03-24T03:28:19.306Z,2.90
2018-03-24T03:44:35.007Z,2.70
2018-03-24T03:47:01.284Z,2.70
2018-03-24T03:49:27.587Z,2.60
2018-03-24T03:51:54.557Z,2.50
2018-03-24T03:54:20.976Z,2.50
2018-03-24T03:56:47.254Z,2.50
2018-03-24T03:59:13.446Z,2.50
2018-03-24T04:01:40.503Z,2.50
2018-03-24T04:04:06.815Z,2.40
2018-03-24T04:06:33.061Z,2.50
2018-03-24T04:08:59.336Z,2.40
2018-03-24T04:11:25.610Z,2.40
2018-03-24T04:13:51.874Z,2.40
2018-03-24T04:16:18.148Z,2.50
2018-03-24T04:18:44.557Z,2.60
2018-03-24T04:21:11.842Z,2.60
2018-03-24T04:23:38.086Z,2.60
2018-03-24T04:26:04.416Z,2.70
2018-03-24T04:28:30.747Z,2.70
2018-03-24T04:30:57.001Z,2.80
2018-03-24T04:33:23.222Z,2.80
2018-03-24T04:35:49.849Z,2.80
2018-03-24T04:38:16.122Z,2.80
2018-03-24T04:40:42.553Z,2.90
2018-03-24T04:43:09.570Z,2.80
2018-03-24T04:45:35.802Z,2.80
2018-03-24T04:48:02.035Z,2.90
2018-03-24T04:50:29.380Z,2.80
2018-03-24T04:52:55.646Z,2.80
2018-03-24T04:55:21.922Z,2.80
2018-03-24T04:57:49.919Z,2.80
2018-03-24T05:00:16.150Z,2.80
2018-03-24T05:02:43.117Z,2.80
2018-03-24T05:05:10.195Z,2.80
2018-03-24T05:07:36.484Z,2.80
2018-03-24T05:10:02.798Z,2.80
2018-03-24T05:12:29.184Z,2.80
2018-03-24T05:14:56.206Z,2.70
2018-03-24T05:17:22.462Z,2.70
2018-03-24T05:19:48.693Z,2.70
2018-03-24T05:22:15.976Z,2.70
2018-03-24T05:24:42.250Z,2.70
2018-03-24T05:27:09.255Z,2.70
2018-03-24T05:29:35.475Z,2.70
2018-03-24T05:32:01.784Z,2.70
2018-03-24T05:34:28.816Z,2.70
2018-03-24T05:36:55.101Z,2.60
2018-03-24T05:39:21.328Z,2.60
2018-03-24T05:41:47.508Z,2.60
2018-03-24T05:44:13.768Z,2.50
2018-03-24T05:46:39.998Z,2.50
2018-03-24T05:49:06.424Z,2.50
2018-03-24T05:51:32.675Z,2.50
2018-03-24T05:53:59.599Z,2.50
2018-03-24T05:56:25.933Z,2.50
2018-03-24T05:58:52.912Z,2.50
2018-03-24T06:01:19.166Z,2.50
2018-03-24T06:03:45.398Z,2.50
2018-03-24T06:06:11.666Z,2.50
2018-03-24T06:08:38.015Z,2.50
2018-03-24T06:11:04.280Z,2.50
2018-03-24T06:13:30.610Z,2.50
2018-03-24T06:15:57.087Z,2.50
2018-03-24T06:18:24.105Z,2.50
2018-03-24T06:20:50.390Z,2.60
2018-03-24T06:23:17.378Z,2.60
2018-03-24T06:25:43.682Z,2.60
2018-03-24T06:28:09.946Z,2.70
2018-03-24T06:30:36.286Z,2.80
2018-03-24T06:33:02.562Z,2.80
2018-03-24T06:35:29.036Z,2.80
2018-03-24T06:37:55.464Z,2.80
2018-03-24T06:40:26.484Z,2.90
2018-03-24T06:42:52.845Z,2.90
2018-03-24T06:45:19.138Z,2.90
2018-03-24T06:47:46.326Z,3.00
2018-03-24T06:50:14.374Z,3.00
2018-03-24T06:52:41.071Z,3.00
2018-03-24T06:55:08.671Z,3.00
2018-03-24T06:57:34.925Z,3.10
2018-03-24T07:00:01.303Z,3.30
2018-03-24T07:02:27.575Z,3.40
2018-03-24T07:04:53.815Z,3.50
2018-03-24T07:07:20.099Z,3.80
2018-03-24T07:09:46.346Z,4.00
2018-03-24T07:12:12.661Z,4.20
2018-03-24T07:14:38.912Z,4.20
2018-03-24T07:17:05.281Z,4.10
2018-03-24T07:19:31.512Z,4.00
2018-03-24T07:21:57.852Z,4.00
2018-03-24T07:24:24.288Z,4.00
2018-03-24T07:26:50.659Z,4.00
2018-03-24T07:29:17.088Z,4.10
2018-03-24T07:31:43.282Z,4.10
2018-03-24T07:34:10.239Z,4.20
2018-03-24T07:36:37.205Z,4.20
2018-03-24T07:39:03.497Z,4.20
2018-03-24T07:41:29.810Z,4.20
2018-03-24T07:43:56.121Z,4.40
2018-03-24T07:46:23.191Z,4.40
2018-03-24T07:48:49.501Z,4.40
2018-03-24T07:51:15.799Z,4.50
2018-03-24T07:53:43.304Z,4.60
2018-03-24T07:56:09.740Z,4.60
2018-03-24T07:58:36.845Z,4.70
2018-03-24T08:01:03.246Z,4.70
2018-03-24T08:03:29.733Z,4.80
2018-03-24T08:05:56.390Z,4.90
2018-03-24T08:08:29.679Z,5.00
2018-03-24T08:10:56.203Z,5.00
2018-03-24T08:13:22.634Z,5.10
2018-03-24T08:15:51.832Z,5.10
2018-03-24T08:18:18.529Z,5.10
2018-03-24T08:20:46.231Z,5.30
2018-03-24T08:23:12.730Z,5.30
2018-03-24T08:25:39.441Z,5.30
2018-03-24T08:28:05.726Z,5.30
2018-03-24T08:30:32.050Z,5.40
2018-03-24T08:32:58.340Z,5.50
2018-03-24T08:35:25.882Z,5.60
2018-03-24T08:37:52.821Z,5.60
2018-03-24T08:40:19.266Z,5.70
2018-03-24T08:42:45.642Z,5.70
2018-03-24T08:45:11.996Z,5.90
2018-03-24T08:47:38.348Z,5.90
2018-03-24T08:50:04.669Z,6.00
2018-03-24T08:52:30.913Z,6.10
2018-03-24T08:54:57.301Z,6.20
2018-03-24T08:57:34.090Z,6.30
2018-03-24T09:00:00.431Z,6.40
2018-03-24T09:02:30.802Z,6.50
2018-03-24T09:04:59.702Z,6.50
2018-03-24T09:07:29.554Z,6.60
2018-03-24T09:09:59.888Z,6.60
2018-03-24T09:12:28.333Z,6.70
2018-03-24T09:14:55.163Z,6.80
2018-03-24T09:17:30.627Z,6.90
2018-03-24T09:19:58.074Z,6.90
2018-03-24T09:22:29.474Z,7.10
2018-03-24T09:25:00.574Z,7.30
2018-03-24T09:27:30.281Z,7.30
2018-03-24T09:30:03.588Z,7.30
2018-03-24T09:32:29.992Z,7.40
2018-03-24T09:35:00.386Z,7.30
2018-03-24T09:37:30.905Z,7.40
2018-03-24T09:42:59.871Z,7.60
2018-03-24T09:45:26.366Z,7.70
2018-03-24T09:47:52.605Z,8.00
2018-03-24T09:50:18.898Z,8.00
2018-03-24T09:52:45.885Z,8.20
2018-03-24T09:55:12.157Z,8.20
2018-03-24T09:57:38.557Z,8.20
2018-03-24T10:00:07.142Z,8.30
2018-03-24T10:02:33.565Z,8.50
2018-03-24T10:05:00.829Z,8.90
2018-03-24T10:07:28.771Z,8.80
2018-03-24T10:09:55.587Z,9.00
2018-03-24T10:12:22.155Z,9.10
2018-03-24T10:14:50.697Z,9.10
2018-03-24T10:17:17.022Z,9.20
2018-03-24T10:19:44.292Z,9.30
2018-03-24T10:27:57.545Z,9.30
2018-03-24T10:30:24.109Z,9.40
2018-03-24T10:32:51.360Z,9.50
2018-03-24T10:35:19.059Z,9.80
2018-03-24T10:37:51.624Z,10.00
2018-03-24T10:40:27.573Z,10.10
2018-03-24T10:43:02.741Z,10.00
2018-03-24T10:45:29.000Z,10.10
2018-03-24T10:47:55.745Z,10.30
2018-03-24T10:50:22.477Z,10.50
2018-03-24T10:52:49.172Z,10.60
2018-03-24T10:55:15.437Z,10.60
2018-03-24T10:57:42.309Z,10.60
2018-03-24T11:00:08.617Z,10.70
2018-03-24T11:02:35.089Z,10.60
2018-03-24T11:05:02.124Z,10.60
2018-03-24T11:07:28.982Z,10.50
2018-03-24T11:09:55.213Z,10.50
2018-03-24T11:12:21.648Z,10.60
2018-03-24T11:14:48.764Z,10.60
2018-03-24T11:17:15.236Z,10.60
2018-03-24T11:19:42.357Z,10.70
2018-03-24T11:22:08.649Z,10.70
2018-03-24T11:24:34.883Z,10.70
2018-03-24T11:27:01.184Z,10.50
2018-03-24T11:29:27.433Z,10.50
2018-03-24T11:31:53.728Z,10.50
2018-03-24T11:34:19.996Z,10.60
2018-03-24T11:36:46.614Z,10.60
2018-03-24T11:39:12.878Z,10.60
2018-03-24T11:41:39.189Z,10.60
2018-03-24T11:44:05.430Z,10.80
2018-03-24T11:46:32.596Z,11.10
2018-03-24T11:48:59.081Z,11.10
2018-03-24T11:51:25.309Z,11.40
2018-03-24T11:53:51.771Z,11.30
2018-03-24T11:56:18.102Z,11.40
2018-03-24T11:58:44.677Z,11.30
2018-03-24T12:01:11.200Z,11.10
2018-03-24T12:03:37.560Z,11.30
2018-03-24T12:06:04.012Z,11.30
2018-03-24T12:08:30.243Z,11.40
2018-03-24T12:10:56.593Z,11.50
2018-03-24T12:13:22.853Z,11.60
2018-03-24T12:15:49.046Z,11.60
2018-03-24T12:18:15.348Z,11.80
2018-03-24T12:20:41.569Z,12.40
2018-03-24T12:23:07.959Z,12.80
2018-03-24T12:25:34.294Z,12.60
2018-03-24T12:28:00.537Z,12.40
2018-03-24T12:30:26.751Z,12.50
2018-03-24T12:32:53.041Z,13.10
2018-03-24T12:35:19.240Z,13.70
2018-03-24T12:37:45.524Z,14.40
2018-03-24T12:40:11.828Z,14.60
2018-03-24T12:42:38.114Z,14.90
2018-03-24T12:45:04.491Z,15.40
2018-03-24T12:47:30.774Z,15.30
2018-03-24T12:49:57.029Z,15.00
2018-03-24T12:52:23.318Z,15.40
2018-03-24T12:54:49.572Z,16.10
2018-03-24T12:57:15.884Z,16.60
2018-03-24T12:59:42.641Z,16.40
2018-03-24T13:02:09.149Z,16.40
2018-03-24T13:04:36.204Z,16.30
2018-03-24T13:07:02.427Z,15.80
2018-03-24T13:09:29.112Z,16.00
2018-03-24T13:12:03.215Z,16.50
2018-03-24T13:14:29.763Z,16.30
2018-03-24T13:16:55.977Z,16.20
2018-03-24T13:19:22.198Z,16.20
2018-03-24T13:21:48.655Z,16.00
2018-03-24T13:24:15.033Z,15.70
2018-03-24T13:26:42.119Z,15.00
2018-03-24T13:29:08.399Z,15.00
2018-03-24T13:31:34.978Z,14.80
2018-03-24T13:34:02.073Z,14.90
2018-03-24T13:36:28.341Z,14.90
2018-03-24T13:38:54.620Z,14.70
2018-03-24T13:41:21.549Z,14.50
2018-03-24T13:43:48.235Z,14.10
2018-03-24T13:46:14.663Z,13.80
2018-03-24T13:48:42.050Z,13.50
2018-03-24T13:51:09.168Z,13.60
2018-03-24T13:53:35.573Z,13.60
2018-03-24T13:56:01.934Z,13.60
2018-03-24T13:58:28.261Z,13.40
2018-03-24T14:00:54.571Z,13.30
2018-03-24T14:03:20.823Z,13.50
2018-03-24T14:05:47.356Z,13.30
2018-03-24T14:08:13.795Z,13.40
2018-03-24T14:10:40.120Z,13.30
2018-03-24T14:13:06.401Z,13.50
2018-03-24T14:15:32.588Z,13.50
2018-03-24T14:17:58.989Z,13.50
2018-03-24T14:20:25.990Z,13.20
2018-03-24T14:22:52.307Z,13.10
2018-03-24T14:25:19.377Z,13.20
2018-03-24T14:27:45.601Z,13.20
2018-03-24T14:30:12.054Z,13.00
2018-03-24T14:32:39.144Z,12.90
2018-03-24T14:35:06.117Z,12.90
2018-03-24T14:37:32.380Z,12.90
2018-03-24T14:39:59.320Z,12.90
2018-03-24T14:42:27.054Z,13.00
2018-03-24T14:44:53.359Z,13.10
2018-03-24T14:47:19.674Z,13.30
2018-03-24T14:49:45.918Z,13.50
2018-03-24T14:52:12.849Z,13.60
2018-03-24T14:54:39.097Z,13.70
2018-03-24T14:57:05.895Z,13.80
2018-03-24T14:59:32.517Z,14.20
2018-03-24T15:01:58.866Z,14.50
2018-03-24T15:04:25.291Z,14.60
2018-03-24T15:06:51.560Z,14.90
2018-03-24T15:09:17.851Z,14.90
2018-03-24T15:11:44.124Z,15.00
2018-03-24T15:14:10.385Z,15.20
2018-03-24T15:16:36.737Z,15.10
2018-03-24T15:19:02.948Z,15.00
2018-03-24T15:21:29.956Z,14.90
2018-03-24T15:23:58.004Z,14.90
2018-03-24T15:26:24.345Z,15.00
2018-03-24T15:29:02.912Z,15.00
2018-03-24T15:31:43.676Z,14.90
2018-03-24T15:34:22.137Z,15.10
2018-03-24T15:36:48.524Z,14.60
2018-03-24T15:39:16.000Z,14.40
2018-03-24T15:41:42.811Z,14.40
2018-03-24T15:44:09.946Z,14.20
2018-03-24T15:46:36.446Z,14.20
2018-03-24T15:49:03.055Z,14.20
2018-03-24T15:51:29.281Z,14.10
2018-03-24T15:53:57.739Z,13.70
2018-03-24T15:56:24.007Z,13.90
2018-03-24T15:58:50.316Z,13.90
2018-03-24T16:03:59.986Z,14.20
2018-03-24T16:06:31.736Z,14.10
2018-03-24T16:09:01.646Z,13.90
2018-03-24T16:11:28.258Z,13.90
2018-03-24T16:14:01.083Z,13.90
2018-03-24T16:16:27.421Z,13.90
2018-03-24T16:21:54.054Z,13.80
2018-03-24T16:24:22.615Z,13.50
2018-03-24T16:26:48.991Z,13.40
2018-03-24T16:32:24.203Z,13.10
2018-03-24T16:34:50.608Z,12.90
2018-03-24T16:37:16.886Z,12.80
2018-03-24T16:39:43.128Z,12.60
2018-03-24T16:42:09.606Z,12.40
2018-03-24T16:44:36.039Z,12.30
2018-03-24T16:47:02.449Z,12.00
2018-03-24T16:52:31.389Z,11.80
2018-03-24T16:55:00.919Z,11.70
2018-03-24T16:57:27.327Z,11.60
2018-03-24T16:59:53.685Z,11.40
2018-03-24T17:02:47.780Z,11.30
2018-03-24T17:05:14.222Z,11.30
2018-03-24T17:07:40.534Z,11.30
2018-03-24T17:10:07.600Z,11.10
2018-03-24T17:12:34.040Z,11.10
2018-03-24T17:15:00.572Z,11.00
2018-03-24T17:17:26.951Z,10.90
2018-03-24T17:19:53.779Z,10.80
2018-03-24T17:22:20.022Z,10.80
2018-03-24T17:24:47.000Z,10.70
2018-03-24T17:27:13.274Z,10.70
2018-03-24T17:29:39.583Z,10.60
2018-03-24T17:32:06.587Z,10.40
2018-03-24T17:34:33.954Z,10.40
2018-03-24T17:37:00.323Z,10.40
2018-03-24T17:39:26.589Z,10.20
2018-03-24T17:41:52.975Z,10.20
2018-03-24T17:44:19.244Z,10.10
2018-03-24T17:46:45.505Z,10.00
2018-03-24T17:49:11.948Z,9.90
2018-03-24T17:51:38.302Z,9.80
2018-03-24T17:54:04.995Z,9.70
2018-03-24T17:56:31.318Z,9.70
2018-03-24T17:58:57.619Z,9.60
2018-03-24T18:01:23.905Z,9.50
2018-03-24T18:03:54.091Z,9.40
2018-03-24T18:06:20.422Z,9.40
2018-03-24T18:08:46.740Z,9.20
2018-03-24T18:11:13.023Z,9.20
2018-03-24T18:13:39.351Z,9.10
2018-03-24T18:16:05.673Z,9.10
2018-03-24T18:18:32.701Z,9.00
2018-03-24T18:20:59.074Z,8.90
2018-03-24T18:23:25.586Z,8.80
2018-03-24T18:25:51.903Z,8.80
2018-03-24T18:28:18.238Z,8.70
2018-03-24T18:30:44.519Z,8.60
2018-03-24T18:33:11.449Z,8.50
2018-03-24T18:35:42.342Z,8.30
2018-03-24T18:38:08.779Z,8.00
2018-03-24T18:40:35.435Z,7.80
2018-03-24T18:43:01.969Z,7.80
2018-03-24T18:45:28.223Z,7.70
2018-03-24T18:48:00.289Z,7.60
2018-03-24T18:50:26.791Z,7.50
2018-03-24T18:52:53.259Z,7.50
2018-03-24T18:55:19.619Z,7.40
2018-03-24T18:57:46.148Z,7.40
2018-03-24T19:00:12.452Z,7.30
2018-03-24T19:02:38.696Z,7.20
2018-03-24T19:05:05.108Z,7.10
2018-03-24T19:07:32.127Z,7.00
2018-03-24T19:09:58.807Z,6.90
2018-03-24T19:12:25.282Z,6.90
2018-03-24T19:14:52.884Z,6.80
2018-03-24T19:17:19.444Z,6.80
2018-03-24T19:19:46.113Z,6.70
2018-03-24T19:22:13.164Z,6.50
2018-03-24T19:24:39.565Z,6.50
2018-03-24T19:27:06.154Z,6.50
2018-03-24T19:29:32.434Z,6.40
2018-03-24T19:31:58.887Z,6.30
2018-03-24T19:34:26.096Z,6.20
2018-03-24T19:36:52.464Z,6.20
2018-03-24T19:39:19.120Z,6.20
2018-03-24T19:41:45.442Z,6.20
2018-03-24T19:44:19.964Z,6.10
2018-03-24T19:46:46.223Z,6.10
2018-03-24T19:49:12.577Z,6.10
2018-03-24T19:51:38.824Z,5.90
2018-03-24T19:54:05.232Z,5.80
2018-03-24T19:56:31.537Z,5.70
2018-03-24T19:59:03.484Z,5.70
2018-03-24T20:01:29.849Z,5.50
2018-03-24T20:03:56.096Z,5.50
2018-03-24T20:06:22.302Z,5.40
2018-03-24T20:08:50.354Z,5.30
2018-03-24T20:11:17.631Z,5.20
2018-03-24T20:13:44.292Z,5.30
2018-03-24T20:16:10.729Z,5.20
2018-03-24T20:18:37.034Z,5.30
2018-03-24T20:21:03.404Z,5.20
2018-03-24T20:23:29.803Z,5.10
2018-03-24T20:25:56.082Z,5.00
2018-03-24T20:28:22.340Z,5.00
2018-03-24T20:30:48.636Z,5.00
2018-03-24T20:33:14.917Z,4.80
2018-03-24T20:35:41.778Z,4.80
2018-03-24T20:38:08.541Z,4.80
2018-03-24T20:40:36.792Z,4.70
2018-03-24T20:43:03.137Z,4.60
2018-03-24T20:45:30.682Z,4.50
2018-03-24T20:47:57.073Z,4.50
2018-03-24T20:50:23.423Z,4.40
2018-03-24T20:52:50.214Z,4.40
2018-03-24T20:55:16.421Z,4.40
2018-03-24T20:57:43.428Z,4.30
2018-03-24T21:00:09.680Z,4.20
2018-03-24T21:02:35.927Z,4.10
2018-03-24T21:05:06.364Z,4.20
2018-03-24T21:07:32.752Z,4.10
2018-03-24T21:09:59.168Z,4.10
2018-03-24T21:12:25.435Z,4.10
2018-03-24T21:14:51.737Z,4.00
2018-03-24T21:17:18.033Z,4.00
2018-03-24T21:19:45.029Z,3.90
2018-03-24T21:22:11.293Z,4.00
2018-03-24T21:24:37.597Z,3.80
2018-03-24T21:27:03.871Z,3.90
2018-03-24T21:29:34.222Z,3.90
2018-03-24T21:32:01.199Z,3.80
2018-03-24T21:34:27.570Z,3.70
2018-03-24T21:36:55.539Z,3.70
2018-03-24T21:39:21.877Z,3.60
2018-03-24T21:41:50.623Z,3.60
2018-03-24T21:44:16.907Z,3.60
2018-03-24T21:46:43.456Z,3.50
2018-03-24T21:49:09.778Z,3.50
2018-03-24T21:51:36.113Z,3.50
2018-03-24T21:54:02.424Z,3.40
2018-03-24T21:56:28.693Z,3.40
2018-03-24T21:58:55.011Z,3.30
2018-03-24T22:01:21.249Z,3.30
2018-03-24T22:03:47.902Z,3.30
2018-03-24T22:06:14.362Z,3.20
2018-03-24T22:08:40.616Z,3.20
2018-03-24T22:11:07.065Z,3.20
2018-03-24T22:13:33.292Z,3.20
2018-03-24T22:15:59.755Z,3.10
2018-03-24T22:18:26.060Z,3.20
2018-03-24T22:20:52.506Z,3.20
2018-03-24T22:23:18.855Z,3.10
2018-03-24T22:25:45.208Z,3.10
2018-03-24T22:28:11.490Z,3.00
2018-03-24T22:30:37.735Z,2.90
2018-03-24T22:33:03.942Z,2.90
2018-03-24T22:35:30.185Z,2.90
2018-03-24T22:37:57.164Z,2.90
2018-03-24T22:40:23.451Z,2.80
2018-03-24T22:42:50.406Z,3.00
2018-03-24T22:45:16.651Z,3.00
2018-03-24T22:47:43.074Z,2.90
2018-03-24T22:50:09.432Z,2.90
2018-03-24T22:52:35.802Z,2.80
2018-03-24T22:55:02.082Z,2.80
2018-03-24T22:57:28.317Z,2.80
2018-03-24T22:59:56.629Z,2.80
2018-03-24T23:02:23.185Z,2.80
2018-03-24T23:04:49.416Z,2.70
2018-03-24T23:07:15.694Z,2.70
2018-03-24T23:09:42.691Z,2.60
2018-03-24T23:12:09.010Z,2.60
2018-03-24T23:14:35.276Z,2.60
2018-03-24T23:17:01.550Z,2.60
2018-03-24T23:19:27.818Z,2.50
2018-03-24T23:21:54.070Z,2.50
2018-03-24T23:24:20.379Z,2.40
2018-03-24T23:26:46.681Z,2.40
2018-03-24T23:29:13.526Z,2.40
2018-03-24T23:31:39.816Z,2.40
2018-03-24T23:34:06.129Z,2.40
2018-03-24T23:36:32.428Z,2.40
2018-03-24T23:38:58.847Z,2.40
2018-03-24T23:41:25.113Z,2.40
2018-03-24T23:43:52.070Z,2.40
2018-03-24T23:46:32.194Z,2.30
2018-03-24T23:48:59.535Z,2.30
2018-03-24T23:51:25.778Z,2.30
2018-03-24T23:53:52.108Z,2.20
2018-03-24T23:56:18.350Z,2.20
2018-03-24T23:58:44.635Z,2.20
